createdAt,value
2019-05-22T00:00:58.535Z,21.61
2019-05-22T00:01:58.526Z,21.57
2019-05-22T00:02:58.521Z,21.64
2019-05-22T00:03:58.515Z,21.59
2019-05-22T00:04:58.506Z,21.60
2019-05-22T00:05:58.509Z,21.66
2019-05-22T00:06:58.498Z,21.60
2019-05-22T00:07:58.501Z,21.59
2019-05-22T00:08:58.495Z,21.63
2019-05-22T00:10:00.446Z,21.59
2019-05-22T00:10:58.473Z,21.61
2019-05-22T00:11:58.480Z,21.61
2019-05-22T00:12:58.479Z,21.63
2019-05-22T00:13:58.465Z,21.57
2019-05-22T00:14:58.470Z,21.64
2019-05-22T00:15:58.454Z,21.60
2019-05-22T00:16:58.451Z,21.57
2019-05-22T00:17:58.451Z,21.59
2019-05-22T00:18:58.444Z,21.51
2019-05-22T00:19:58.440Z,21.57
2019-05-22T00:20:58.442Z,21.48
2019-05-22T00:21:58.435Z,21.51
2019-05-22T00:22:58.421Z,21.57
2019-05-22T00:23:58.417Z,21.59
2019-05-22T00:24:58.434Z,21.56
2019-05-22T00:25:58.414Z,21.60
2019-05-22T00:26:58.412Z,21.59
2019-05-22T00:27:58.392Z,21.59
2019-05-22T00:28:58.388Z,21.57
2019-05-22T00:29:58.402Z,21.50
2019-05-22T00:30:58.375Z,21.61
2019-05-22T00:31:58.395Z,21.48
2019-05-22T00:32:58.438Z,21.46
2019-05-22T00:33:58.364Z,21.51
2019-05-22T00:34:58.364Z,21.53
2019-05-22T00:35:58.352Z,21.57
2019-05-22T00:36:58.354Z,21.50
2019-05-22T00:37:58.374Z,21.48
2019-05-22T00:38:58.386Z,21.53
2019-05-22T00:39:58.397Z,21.50
2019-05-22T00:40:58.335Z,21.50
2019-05-22T00:41:58.324Z,21.51
2019-05-22T00:43:04.277Z,21.50
2019-05-22T00:43:58.320Z,21.54
2019-05-22T00:44:58.310Z,21.59
2019-05-22T00:45:58.308Z,21.51
2019-05-22T00:46:58.303Z,21.57
2019-05-22T00:47:58.296Z,21.51
2019-05-22T00:48:58.299Z,21.44
2019-05-22T00:49:58.280Z,21.53
2019-05-22T00:50:58.305Z,21.51
2019-05-22T00:51:58.306Z,21.56
2019-05-22T00:52:58.275Z,21.45
2019-05-22T00:53:58.266Z,21.51
2019-05-22T00:54:58.261Z,21.56
2019-05-22T00:55:58.250Z,21.51
2019-05-22T00:56:58.246Z,21.53
2019-05-22T00:57:58.247Z,21.53
2019-05-22T00:58:58.244Z,21.48
2019-05-22T00:59:58.232Z,21.48
2019-05-22T01:00:58.225Z,21.51
2019-05-22T01:01:58.220Z,21.54
2019-05-22T01:02:58.217Z,21.51
2019-05-22T01:03:58.221Z,21.45
2019-05-22T01:04:58.213Z,21.51
2019-05-22T01:05:58.214Z,21.46
2019-05-22T01:06:58.202Z,21.50
2019-05-22T01:07:58.190Z,21.50
2019-05-22T01:08:58.182Z,21.50
2019-05-22T01:10:00.015Z,21.48
2019-05-22T01:10:58.173Z,21.48
2019-05-22T01:11:58.176Z,21.51
2019-05-22T01:12:58.169Z,21.48
2019-05-22T01:13:58.158Z,21.51
2019-05-22T01:14:58.156Z,21.45
2019-05-22T01:15:58.160Z,21.53
2019-05-22T01:16:58.155Z,21.50
2019-05-22T01:17:58.146Z,21.51
2019-05-22T01:18:58.138Z,21.39
2019-05-22T01:19:58.127Z,21.48
2019-05-22T01:20:58.130Z,21.48
2019-05-22T01:21:58.117Z,21.46
2019-05-22T01:22:58.117Z,21.54
2019-05-22T01:23:58.112Z,21.48
2019-05-22T01:24:58.110Z,21.46
2019-05-22T01:25:58.109Z,21.45
2019-05-22T01:26:58.097Z,21.51
2019-05-22T01:27:58.092Z,21.48
2019-05-22T01:28:58.089Z,21.56
2019-05-22T01:29:58.084Z,21.51
2019-05-22T01:30:58.081Z,21.53
2019-05-22T01:31:58.069Z,21.50
2019-05-22T01:32:58.098Z,21.46
2019-05-22T01:33:58.057Z,21.45
2019-05-22T01:34:58.056Z,21.48
2019-05-22T01:35:58.058Z,21.45
2019-05-22T01:36:58.048Z,21.39
2019-05-22T01:37:58.039Z,21.39
2019-05-22T01:38:58.034Z,21.53
2019-05-22T01:39:58.025Z,21.38
2019-05-22T01:40:58.019Z,21.50
2019-05-22T01:41:58.014Z,21.41
2019-05-22T01:42:58.010Z,21.45
2019-05-22T01:43:58.012Z,21.38
2019-05-22T01:45:05.979Z,21.48
2019-05-22T01:45:57.994Z,21.42
2019-05-22T01:46:57.995Z,21.42
2019-05-22T01:47:57.989Z,21.56
2019-05-22T01:48:57.989Z,21.48
2019-05-22T01:49:57.986Z,21.44
2019-05-22T01:50:57.992Z,21.45
2019-05-22T01:51:59.474Z,21.42
2019-05-22T01:52:57.956Z,21.39
2019-05-22T01:53:57.954Z,21.53
2019-05-22T01:54:57.950Z,21.39
2019-05-22T01:55:57.950Z,21.36
2019-05-22T01:56:57.955Z,21.35
2019-05-22T01:57:57.934Z,21.38
2019-05-22T01:58:57.929Z,21.45
2019-05-22T01:59:57.924Z,21.42
2019-05-22T02:00:57.921Z,21.39
2019-05-22T02:01:57.920Z,21.38
2019-05-22T02:02:57.911Z,21.36
2019-05-22T02:03:57.902Z,21.41
2019-05-22T02:04:57.897Z,21.34
2019-05-22T02:05:57.893Z,21.39
2019-05-22T02:06:57.887Z,21.35
2019-05-22T02:07:57.883Z,21.36
2019-05-22T02:08:57.886Z,21.32
2019-05-22T02:09:57.882Z,21.36
2019-05-22T02:10:57.869Z,21.42
2019-05-22T02:11:57.857Z,21.41
2019-05-22T02:12:57.859Z,21.38
2019-05-22T02:13:57.887Z,21.45
2019-05-22T02:14:57.925Z,21.35
2019-05-22T02:15:57.844Z,21.42
2019-05-22T02:16:57.838Z,21.30
2019-05-22T02:17:57.830Z,21.32
2019-05-22T02:18:57.820Z,21.35
2019-05-22T02:19:57.822Z,21.35
2019-05-22T02:20:57.823Z,21.39
2019-05-22T02:21:59.493Z,21.39
2019-05-22T02:22:57.804Z,21.34
2019-05-22T02:23:57.796Z,21.35
2019-05-22T02:24:57.797Z,21.32
2019-05-22T02:25:57.790Z,21.35
2019-05-22T02:26:57.779Z,21.29
2019-05-22T02:27:57.781Z,21.29
2019-05-22T02:28:57.776Z,21.29
2019-05-22T02:29:57.768Z,21.27
2019-05-22T02:30:57.769Z,21.35
2019-05-22T02:31:57.756Z,21.38
2019-05-22T02:32:57.747Z,21.34
2019-05-22T02:33:57.751Z,21.36
2019-05-22T02:34:57.752Z,21.35
2019-05-22T02:35:57.737Z,21.23
2019-05-22T02:36:57.770Z,21.35
2019-05-22T02:37:57.721Z,21.36
2019-05-22T02:38:57.722Z,21.35
2019-05-22T02:39:57.732Z,21.27
2019-05-22T02:40:57.720Z,21.26
2019-05-22T02:41:57.706Z,21.34
2019-05-22T02:42:57.735Z,21.29
2019-05-22T02:43:57.705Z,21.26
2019-05-22T02:44:57.685Z,21.32
2019-05-22T02:45:57.685Z,21.24
2019-05-22T02:47:14.410Z,21.35
2019-05-22T02:47:57.679Z,21.34
2019-05-22T02:48:57.672Z,21.34
2019-05-22T02:49:57.658Z,21.35
2019-05-22T02:50:57.652Z,21.32
2019-05-22T02:51:57.655Z,21.34
2019-05-22T02:52:59.496Z,21.23
2019-05-22T02:53:57.641Z,21.34
2019-05-22T02:54:57.664Z,21.34
2019-05-22T02:55:57.634Z,21.34
2019-05-22T02:56:57.631Z,21.35
2019-05-22T02:57:57.623Z,21.32
2019-05-22T02:58:57.610Z,21.30
2019-05-22T02:59:57.609Z,21.27
2019-05-22T03:00:57.615Z,21.24
2019-05-22T03:01:57.603Z,21.26
2019-05-22T03:02:57.594Z,21.27
2019-05-22T03:03:57.588Z,21.27
2019-05-22T03:04:57.606Z,21.24
2019-05-22T03:05:57.584Z,21.30
2019-05-22T03:06:57.573Z,21.27
2019-05-22T03:07:57.567Z,21.30
2019-05-22T03:08:57.561Z,21.27
2019-05-22T03:09:57.628Z,21.27
2019-05-22T03:10:57.561Z,21.29
2019-05-22T03:11:57.549Z,21.27
2019-05-22T03:12:57.538Z,21.30
2019-05-22T03:13:57.548Z,21.27
2019-05-22T03:14:57.529Z,21.27
2019-05-22T03:15:57.522Z,21.27
2019-05-22T03:16:57.514Z,21.26
2019-05-22T03:17:57.511Z,21.24
2019-05-22T03:19:08.198Z,21.26
2019-05-22T03:19:57.503Z,21.30
2019-05-22T03:20:57.502Z,21.29
2019-05-22T03:21:57.490Z,21.29
2019-05-22T03:22:57.507Z,21.21
2019-05-22T03:23:57.484Z,21.32
2019-05-22T03:24:59.006Z,21.29
2019-05-22T03:25:57.471Z,21.24
2019-05-22T03:26:57.471Z,21.24
2019-05-22T03:27:57.465Z,21.29
2019-05-22T03:28:59.013Z,21.23
2019-05-22T03:29:57.449Z,21.27
2019-05-22T03:30:59.005Z,21.29
2019-05-22T03:31:57.442Z,21.26
2019-05-22T03:32:57.470Z,21.20
2019-05-22T03:33:57.449Z,21.23
2019-05-22T03:34:57.429Z,21.27
2019-05-22T03:35:57.439Z,21.23
2019-05-22T03:36:57.412Z,21.27
2019-05-22T03:37:57.409Z,21.29
2019-05-22T03:38:57.401Z,21.26
2019-05-22T03:39:57.395Z,21.30
2019-05-22T03:40:57.396Z,21.27
2019-05-22T03:41:59.008Z,21.30
2019-05-22T03:42:57.375Z,21.29
2019-05-22T03:43:57.377Z,21.27
2019-05-22T03:44:57.377Z,21.17
2019-05-22T03:45:57.428Z,21.29
2019-05-22T03:46:59.619Z,21.27
2019-05-22T03:47:57.350Z,21.27
2019-05-22T03:48:57.342Z,21.30
2019-05-22T03:49:57.354Z,21.27
2019-05-22T03:50:57.336Z,21.21
2019-05-22T03:51:57.330Z,21.34
2019-05-22T03:52:57.328Z,21.26
2019-05-22T03:53:57.315Z,21.26
2019-05-22T03:54:57.310Z,21.30
2019-05-22T03:55:57.325Z,21.17
2019-05-22T03:56:57.320Z,21.20
2019-05-22T03:57:57.304Z,21.27
2019-05-22T03:58:57.292Z,21.32
2019-05-22T03:59:57.280Z,21.26
2019-05-22T04:00:57.278Z,21.27
2019-05-22T04:01:57.309Z,21.29
2019-05-22T04:02:57.271Z,21.26
2019-05-22T04:03:57.264Z,21.14
2019-05-22T04:04:57.258Z,21.24
2019-05-22T04:05:57.249Z,21.32
2019-05-22T04:06:57.246Z,21.26
2019-05-22T04:07:57.245Z,21.20
2019-05-22T04:08:57.250Z,21.14
2019-05-22T04:09:57.237Z,21.23
2019-05-22T04:10:57.227Z,21.13
2019-05-22T04:11:57.225Z,21.19
2019-05-22T04:12:57.220Z,21.14
2019-05-22T04:13:57.221Z,21.20
2019-05-22T04:14:57.214Z,21.11
2019-05-22T04:15:57.199Z,21.19
2019-05-22T04:16:57.255Z,21.19
2019-05-22T04:17:57.205Z,21.17
2019-05-22T04:18:57.216Z,21.17
2019-05-22T04:19:57.204Z,21.14
2019-05-22T04:20:57.175Z,21.19
2019-05-22T04:21:57.203Z,21.20
2019-05-22T04:22:57.218Z,21.17
2019-05-22T04:23:57.175Z,21.17
2019-05-22T04:24:57.154Z,21.13
2019-05-22T04:25:57.151Z,21.13
2019-05-22T04:26:57.187Z,21.08
2019-05-22T04:27:57.170Z,21.14
2019-05-22T04:28:57.151Z,21.16
2019-05-22T04:29:57.182Z,21.09
2019-05-22T04:30:59.841Z,21.13
2019-05-22T04:31:57.138Z,21.02
2019-05-22T04:32:57.182Z,21.05
2019-05-22T04:33:57.117Z,21.13
2019-05-22T04:34:57.113Z,21.13
2019-05-22T04:35:57.093Z,21.13
2019-05-22T04:36:57.102Z,21.06
2019-05-22T04:37:57.084Z,21.08
2019-05-22T04:38:57.079Z,21.09
2019-05-22T04:39:57.092Z,21.06
2019-05-22T04:40:57.073Z,21.13
2019-05-22T04:41:57.062Z,21.17
2019-05-22T04:42:57.077Z,21.08
2019-05-22T04:43:57.061Z,21.09
2019-05-22T04:44:57.149Z,21.09
2019-05-22T04:45:57.180Z,21.16
2019-05-22T04:46:57.094Z,21.14
2019-05-22T04:47:57.545Z,21.14
2019-05-22T04:48:57.081Z,21.16
2019-05-22T04:50:06.812Z,21.19
2019-05-22T04:50:57.019Z,21.11
2019-05-22T04:51:57.021Z,21.17
2019-05-22T04:52:57.010Z,21.20
2019-05-22T04:53:57.030Z,21.16
2019-05-22T04:54:56.997Z,21.24
2019-05-22T04:55:56.988Z,21.19
2019-05-22T04:56:56.981Z,21.23
2019-05-22T04:57:57.032Z,21.09
2019-05-22T04:58:56.996Z,21.16
2019-05-22T04:59:56.968Z,21.17
2019-05-22T05:00:56.959Z,21.24
2019-05-22T05:01:56.957Z,21.19
2019-05-22T05:02:56.969Z,21.14
2019-05-22T05:03:56.957Z,21.14
2019-05-22T05:04:56.949Z,21.14
2019-05-22T05:05:56.961Z,21.19
2019-05-22T05:06:56.933Z,21.11
2019-05-22T05:07:56.938Z,21.20
2019-05-22T05:08:56.955Z,21.14
2019-05-22T05:09:56.910Z,21.19
2019-05-22T05:10:56.918Z,21.17
2019-05-22T05:11:56.912Z,21.06
2019-05-22T05:12:56.909Z,21.06
2019-05-22T05:13:56.898Z,21.06
2019-05-22T05:14:56.908Z,21.09
2019-05-22T05:15:56.888Z,21.09
2019-05-22T05:16:56.881Z,21.04
2019-05-22T05:17:56.880Z,21.08
2019-05-22T05:18:56.872Z,21.06
2019-05-22T05:19:56.872Z,21.14
2019-05-22T05:20:56.857Z,21.09
2019-05-22T05:21:56.855Z,21.09
2019-05-22T05:22:56.846Z,21.13
2019-05-22T05:23:56.849Z,21.19
2019-05-22T05:24:56.841Z,21.08
2019-05-22T05:25:56.837Z,21.19
2019-05-22T05:26:56.830Z,21.09
2019-05-22T05:27:56.829Z,21.13
2019-05-22T05:28:56.816Z,21.02
2019-05-22T05:29:56.815Z,21.11
2019-05-22T05:30:56.807Z,21.06
2019-05-22T05:31:56.798Z,21.11
2019-05-22T05:32:56.794Z,21.08
2019-05-22T05:33:56.783Z,21.08
2019-05-22T05:34:56.782Z,21.14
2019-05-22T05:35:56.786Z,21.13
2019-05-22T05:36:56.787Z,21.20
2019-05-22T05:37:56.772Z,21.09
2019-05-22T05:38:56.767Z,21.09
2019-05-22T05:39:56.751Z,21.14
2019-05-22T05:40:56.746Z,21.23
2019-05-22T05:41:56.742Z,21.21
2019-05-22T05:42:56.737Z,21.29
2019-05-22T05:43:56.735Z,21.30
2019-05-22T05:44:56.744Z,21.24
2019-05-22T05:45:56.749Z,21.26
2019-05-22T05:46:56.737Z,21.23
2019-05-22T05:47:56.716Z,21.27
2019-05-22T05:48:56.710Z,21.26
2019-05-22T05:49:56.704Z,21.26
2019-05-22T05:50:56.701Z,21.23
2019-05-22T05:51:56.685Z,21.26
2019-05-22T05:52:56.690Z,21.30
2019-05-22T05:53:56.681Z,21.32
2019-05-22T05:54:56.671Z,21.26
2019-05-22T05:55:56.673Z,21.21
2019-05-22T05:56:56.664Z,21.24
2019-05-22T05:57:56.660Z,21.27
2019-05-22T05:58:56.655Z,21.34
2019-05-22T05:59:56.691Z,21.35
2019-05-22T06:00:58.555Z,21.24
2019-05-22T06:01:56.646Z,21.30
2019-05-22T06:02:56.933Z,21.27
2019-05-22T06:03:56.630Z,21.30
2019-05-22T06:04:56.625Z,21.34
2019-05-22T06:05:56.611Z,21.27
2019-05-22T06:07:00.465Z,21.41
2019-05-22T06:07:56.608Z,21.38
2019-05-22T06:08:56.602Z,21.35
2019-05-22T06:09:56.602Z,21.42
2019-05-22T06:10:56.613Z,21.38
2019-05-22T06:11:56.590Z,21.35
2019-05-22T06:12:56.582Z,21.35
2019-05-22T06:13:56.574Z,21.35
2019-05-22T06:14:56.567Z,21.42
2019-05-22T06:15:56.614Z,21.44
2019-05-22T06:16:56.605Z,21.41
2019-05-22T06:17:56.554Z,21.45
2019-05-22T06:18:57.263Z,21.39
2019-05-22T06:19:56.545Z,21.48
2019-05-22T06:21:03.665Z,21.50
2019-05-22T06:21:56.575Z,21.45
2019-05-22T06:22:56.548Z,21.38
2019-05-22T06:23:56.539Z,21.48
2019-05-22T06:24:56.516Z,21.44
2019-05-22T06:25:56.515Z,21.38
2019-05-22T06:26:56.504Z,21.41
2019-05-22T06:27:56.520Z,21.35
2019-05-22T06:28:56.497Z,21.35
2019-05-22T06:29:56.496Z,21.34
2019-05-22T06:30:56.492Z,21.38
2019-05-22T06:31:56.479Z,21.35
2019-05-22T06:32:56.500Z,21.26
2019-05-22T06:33:56.470Z,21.30
2019-05-22T06:34:59.670Z,21.29
2019-05-22T06:35:56.462Z,21.30
2019-05-22T06:36:56.461Z,21.35
2019-05-22T06:37:56.444Z,21.20
2019-05-22T06:38:56.447Z,21.35
2019-05-22T06:39:56.457Z,21.35
2019-05-22T06:40:56.437Z,21.26
2019-05-22T06:41:56.470Z,21.26
2019-05-22T06:42:56.483Z,21.26
2019-05-22T06:43:56.476Z,21.32
2019-05-22T06:44:56.458Z,21.34
2019-05-22T06:45:56.425Z,21.32
2019-05-22T06:46:56.420Z,21.35
2019-05-22T06:47:56.424Z,21.29
2019-05-22T06:48:56.393Z,21.32
2019-05-22T06:49:56.426Z,21.27
2019-05-22T06:50:56.381Z,21.32
2019-05-22T06:51:56.473Z,21.29
2019-05-22T06:53:09.459Z,21.27
2019-05-22T06:53:56.370Z,21.21
2019-05-22T06:54:56.371Z,21.24
2019-05-22T06:55:56.362Z,21.21
2019-05-22T06:56:56.372Z,21.26
2019-05-22T06:57:56.343Z,21.27
2019-05-22T06:58:56.330Z,21.24
2019-05-22T07:00:11.979Z,21.26
2019-05-22T07:00:56.376Z,21.21
2019-05-22T07:02:01.340Z,21.27
2019-05-22T07:02:56.324Z,21.23
2019-05-22T07:03:56.311Z,21.13
2019-05-22T07:04:56.314Z,21.14
2019-05-22T07:05:56.332Z,21.16
2019-05-22T07:06:56.324Z,21.23
2019-05-22T07:07:56.293Z,21.13
2019-05-22T07:08:56.283Z,21.16
2019-05-22T07:09:56.294Z,21.23
2019-05-22T07:10:56.276Z,21.13
2019-05-22T07:11:56.278Z,21.20
2019-05-22T07:12:56.275Z,21.20
2019-05-22T07:13:56.270Z,21.11
2019-05-22T07:14:56.251Z,21.16
2019-05-22T07:15:56.244Z,21.14
2019-05-22T07:16:56.248Z,21.17
2019-05-22T07:17:56.247Z,21.19
2019-05-22T07:18:56.225Z,21.19
2019-05-22T07:19:56.242Z,21.16
2019-05-22T07:20:56.236Z,21.09
2019-05-22T07:21:56.206Z,21.14
2019-05-22T07:22:56.204Z,21.13
2019-05-22T07:23:56.209Z,21.17
2019-05-22T07:24:56.195Z,21.23
2019-05-22T07:25:56.196Z,21.16
2019-05-22T07:26:56.189Z,21.14
2019-05-22T07:27:56.195Z,21.11
2019-05-22T07:28:56.182Z,21.20
2019-05-22T07:29:56.167Z,21.11
2019-05-22T07:30:56.159Z,21.14
2019-05-22T07:31:56.160Z,21.23
2019-05-22T07:32:56.160Z,21.17
2019-05-22T07:33:56.151Z,21.21
2019-05-22T07:34:56.143Z,21.19
2019-05-22T07:36:09.167Z,21.14
2019-05-22T07:36:56.131Z,21.17
2019-05-22T07:37:58.137Z,21.16
2019-05-22T07:38:56.115Z,21.14
2019-05-22T07:39:56.118Z,21.16
2019-05-22T07:40:56.107Z,21.19
2019-05-22T07:41:56.102Z,21.14
2019-05-22T07:42:56.496Z,21.21
2019-05-22T07:43:56.094Z,21.13
2019-05-22T07:44:56.110Z,21.20
2019-05-22T07:45:56.079Z,21.19
2019-05-22T07:46:56.074Z,21.20
2019-05-22T07:47:56.066Z,21.13
2019-05-22T07:48:56.058Z,21.19
2019-05-22T07:49:56.066Z,21.19
2019-05-22T07:50:56.102Z,21.11
2019-05-22T07:52:01.155Z,21.19
2019-05-22T07:52:56.046Z,21.14
2019-05-22T07:53:56.036Z,21.20
2019-05-22T07:54:56.033Z,21.13
2019-05-22T07:55:56.025Z,21.16
2019-05-22T07:56:56.023Z,21.16
2019-05-22T07:57:56.013Z,21.16
2019-05-22T07:58:58.936Z,21.11
2019-05-22T07:59:55.998Z,21.17
2019-05-22T08:00:55.996Z,21.09
2019-05-22T08:01:55.991Z,21.16
2019-05-22T08:02:56.014Z,21.11
2019-05-22T08:03:55.982Z,21.08
2019-05-22T08:04:55.978Z,21.09
2019-05-22T08:05:55.975Z,21.20
2019-05-22T08:06:56.106Z,21.09
2019-05-22T08:07:55.954Z,21.04
2019-05-22T08:08:55.951Z,21.19
2019-05-22T08:09:55.949Z,21.08
2019-05-22T08:10:55.955Z,21.08
2019-05-22T08:11:55.945Z,21.06
2019-05-22T08:12:55.942Z,21.08
2019-05-22T08:13:55.923Z,21.06
2019-05-22T08:14:55.957Z,21.11
2019-05-22T08:15:55.916Z,21.09
2019-05-22T08:16:55.936Z,21.06
2019-05-22T08:17:56.066Z,21.04
2019-05-22T08:18:55.899Z,21.11
2019-05-22T08:19:55.893Z,21.08
2019-05-22T08:20:55.905Z,21.04
2019-05-22T08:22:06.901Z,21.06
2019-05-22T08:22:55.876Z,21.06
2019-05-22T08:23:55.943Z,21.04
2019-05-22T08:24:55.867Z,21.06
2019-05-22T08:25:55.855Z,20.99
2019-05-22T08:26:55.871Z,21.08
2019-05-22T08:27:57.620Z,21.06
2019-05-22T08:28:55.852Z,21.09
2019-05-22T08:29:57.055Z,21.06
2019-05-22T08:30:55.862Z,21.09
2019-05-22T08:31:55.834Z,21.09
2019-05-22T08:32:55.819Z,21.13
2019-05-22T08:33:55.823Z,21.09
2019-05-22T08:34:55.803Z,21.05
2019-05-22T08:35:55.817Z,21.08
2019-05-22T08:36:55.815Z,21.06
2019-05-22T08:37:55.795Z,21.09
2019-05-22T08:38:55.798Z,21.11
2019-05-22T08:39:55.891Z,21.13
2019-05-22T08:40:55.779Z,21.11
2019-05-22T08:41:55.779Z,21.08
2019-05-22T08:42:55.773Z,21.02
2019-05-22T08:44:14.753Z,21.09
2019-05-22T08:44:55.748Z,21.09
2019-05-22T08:45:55.751Z,21.04
2019-05-22T08:46:55.741Z,21.04
2019-05-22T08:47:55.739Z,21.05
2019-05-22T08:48:55.740Z,21.04
2019-05-22T08:49:55.728Z,21.04
2019-05-22T08:50:55.734Z,21.02
2019-05-22T08:51:55.726Z,21.05
2019-05-22T08:52:55.707Z,21.04
2019-05-22T08:53:55.705Z,21.09
2019-05-22T08:54:55.696Z,21.04
2019-05-22T08:55:55.709Z,21.02
2019-05-22T08:56:55.695Z,20.98
2019-05-22T08:57:55.689Z,21.06
2019-05-22T08:58:55.796Z,21.04
2019-05-22T08:59:55.672Z,21.09
2019-05-22T09:00:55.668Z,21.06
2019-05-22T09:01:55.701Z,21.13
2019-05-22T09:02:55.669Z,21.08
2019-05-22T09:03:55.657Z,21.09
2019-05-22T09:04:55.641Z,21.02
2019-05-22T09:05:55.738Z,21.13
2019-05-22T09:06:55.630Z,21.09
2019-05-22T09:07:55.633Z,21.08
2019-05-22T09:08:55.656Z,21.13
2019-05-22T09:09:55.647Z,21.14
2019-05-22T09:10:55.835Z,21.11
2019-05-22T09:11:55.607Z,21.04
2019-05-22T09:12:55.699Z,21.08
2019-05-22T09:13:55.662Z,21.11
2019-05-22T09:14:55.600Z,21.09
2019-05-22T09:15:55.591Z,21.09
2019-05-22T09:16:55.576Z,21.06
2019-05-22T09:17:55.634Z,21.04
2019-05-22T09:18:55.562Z,21.06
2019-05-22T09:19:55.653Z,21.02
2019-05-22T09:20:55.572Z,21.08
2019-05-22T09:21:55.563Z,20.99
2019-05-22T09:22:55.588Z,21.04
2019-05-22T09:23:55.536Z,21.02
2019-05-22T09:24:55.535Z,21.04
2019-05-22T09:25:55.527Z,21.05
2019-05-22T09:26:55.526Z,21.01
2019-05-22T09:27:55.542Z,21.01
2019-05-22T09:28:55.523Z,21.06
2019-05-22T09:29:55.510Z,21.06
2019-05-22T09:30:55.506Z,21.04
2019-05-22T09:31:55.531Z,21.11
2019-05-22T09:32:55.495Z,21.08
2019-05-22T09:33:55.486Z,21.06
2019-05-22T09:34:55.506Z,21.01
2019-05-22T09:35:55.485Z,21.01
2019-05-22T09:36:55.466Z,21.06
2019-05-22T09:37:55.495Z,20.99
2019-05-22T09:38:55.453Z,20.99
2019-05-22T09:39:55.467Z,21.05
2019-05-22T09:40:55.505Z,20.96
2019-05-22T09:41:55.440Z,21.04
2019-05-22T09:42:55.446Z,21.01
2019-05-22T09:43:55.428Z,21.09
2019-05-22T09:44:55.424Z,21.06
2019-05-22T09:45:55.422Z,21.01
2019-05-22T09:46:55.422Z,21.04
2019-05-22T09:47:55.430Z,21.09
2019-05-22T09:48:55.438Z,21.05
2019-05-22T09:49:55.415Z,21.05
2019-05-22T09:50:55.390Z,21.06
2019-05-22T09:51:55.415Z,21.08
2019-05-22T09:52:57.977Z,21.09
2019-05-22T09:53:55.388Z,21.06
2019-05-22T09:54:55.370Z,21.06
2019-05-22T09:55:55.382Z,21.05
2019-05-22T09:56:55.365Z,21.11
2019-05-22T09:57:55.367Z,21.06
2019-05-22T09:58:55.377Z,21.05
2019-05-22T09:59:55.428Z,21.08
2019-05-22T10:00:55.352Z,21.01
2019-05-22T10:01:55.335Z,21.01
2019-05-22T10:02:55.332Z,21.06
2019-05-22T10:03:55.326Z,20.99
2019-05-22T10:04:55.321Z,21.04
2019-05-22T10:05:55.413Z,21.08
2019-05-22T10:06:55.317Z,21.01
2019-05-22T10:08:00.957Z,21.04
2019-05-22T10:08:57.137Z,21.05
2019-05-22T10:09:55.287Z,21.05
2019-05-22T10:10:55.281Z,21.09
2019-05-22T10:11:55.284Z,21.06
2019-05-22T10:12:55.282Z,21.06
2019-05-22T10:13:55.273Z,21.05
2019-05-22T10:14:55.269Z,21.01
2019-05-22T10:15:55.254Z,21.09
2019-05-22T10:16:55.247Z,21.06
2019-05-22T10:17:55.248Z,21.05
2019-05-22T10:18:55.240Z,21.05
2019-05-22T10:19:55.231Z,21.01
2019-05-22T10:20:55.359Z,21.13
2019-05-22T10:21:55.244Z,21.02
2019-05-22T10:22:55.217Z,21.06
2019-05-22T10:23:55.223Z,21.09
2019-05-22T10:25:14.044Z,21.13
2019-05-22T10:25:55.215Z,21.08
2019-05-22T10:26:55.506Z,21.13
2019-05-22T10:27:59.024Z,21.04
2019-05-22T10:28:55.194Z,21.08
2019-05-22T10:29:55.177Z,21.05
2019-05-22T10:30:56.649Z,21.04
2019-05-22T10:31:55.196Z,21.08
2019-05-22T10:32:55.170Z,21.04
2019-05-22T10:33:55.159Z,21.08
2019-05-22T10:34:57.719Z,21.06
2019-05-22T10:35:55.150Z,20.95
2019-05-22T10:36:55.145Z,21.09
2019-05-22T10:37:55.137Z,20.96
2019-05-22T10:38:55.143Z,21.06
2019-05-22T10:39:55.139Z,21.11
2019-05-22T10:40:58.981Z,21.02
2019-05-22T10:41:55.116Z,21.02
2019-05-22T10:42:55.111Z,21.06
2019-05-22T10:43:55.118Z,21.06
2019-05-22T10:44:55.103Z,21.02
2019-05-22T10:45:55.097Z,21.06
2019-05-22T10:46:55.110Z,21.09
2019-05-22T10:47:55.082Z,20.95
2019-05-22T10:48:55.080Z,20.96
2019-05-22T10:49:55.080Z,21.05
2019-05-22T10:50:55.076Z,20.99
2019-05-22T10:51:55.057Z,21.05
2019-05-22T10:52:55.271Z,21.04
2019-05-22T10:53:55.047Z,21.01
2019-05-22T10:54:56.091Z,20.93
2019-05-22T10:55:55.044Z,20.98
2019-05-22T10:56:55.062Z,21.05
2019-05-22T10:57:55.082Z,21.04
2019-05-22T10:58:55.034Z,20.98
2019-05-22T10:59:55.018Z,21.04
2019-05-22T11:00:55.021Z,21.01
2019-05-22T11:01:55.004Z,20.98
2019-05-22T11:02:55.002Z,21.02
2019-05-22T11:03:55.003Z,21.08
2019-05-22T11:04:54.993Z,20.93
2019-05-22T11:06:06.396Z,21.04
2019-05-22T11:06:54.983Z,20.98
2019-05-22T11:07:54.975Z,21.04
2019-05-22T11:08:54.971Z,21.02
2019-05-22T11:09:54.970Z,20.95
2019-05-22T11:10:55.041Z,21.02
2019-05-22T11:11:54.956Z,21.05
2019-05-22T11:12:54.996Z,20.96
2019-05-22T11:14:01.250Z,21.02
2019-05-22T11:14:54.931Z,20.95
2019-05-22T11:15:54.948Z,21.05
2019-05-22T11:16:54.936Z,21.04
2019-05-22T11:17:54.928Z,20.96
2019-05-22T11:18:54.916Z,21.01
2019-05-22T11:19:54.931Z,21.02
2019-05-22T11:20:54.900Z,21.06
2019-05-22T11:21:56.958Z,21.01
2019-05-22T11:22:54.941Z,21.05
2019-05-22T11:23:54.887Z,20.89
2019-05-22T11:24:54.879Z,20.95
2019-05-22T11:25:54.874Z,21.06
2019-05-22T11:26:54.868Z,21.01
2019-05-22T11:27:54.874Z,20.89
2019-05-22T11:28:54.878Z,20.96
2019-05-22T11:29:54.855Z,21.01
2019-05-22T11:30:54.853Z,20.95
2019-05-22T11:31:54.864Z,21.06
2019-05-22T11:32:54.859Z,20.89
2019-05-22T11:33:54.829Z,20.89
2019-05-22T11:34:54.826Z,20.89
2019-05-22T11:35:54.821Z,20.90
2019-05-22T11:36:54.834Z,21.01
2019-05-22T11:37:54.844Z,20.98
2019-05-22T11:38:54.800Z,20.89
2019-05-22T11:39:54.821Z,20.98
2019-05-22T11:40:54.799Z,20.96
2019-05-22T11:41:54.790Z,20.95
2019-05-22T11:42:56.666Z,20.98
2019-05-22T11:43:54.774Z,20.89
2019-05-22T11:44:54.770Z,20.90
2019-05-22T11:45:54.762Z,20.98
2019-05-22T11:46:54.763Z,20.95
2019-05-22T11:47:54.775Z,21.01
2019-05-22T11:48:56.667Z,20.90
2019-05-22T11:49:54.750Z,20.99
2019-05-22T11:50:54.780Z,20.89
2019-05-22T11:51:54.731Z,20.90
2019-05-22T11:52:54.729Z,21.01
2019-05-22T11:54:07.859Z,20.99
2019-05-22T11:54:54.740Z,20.98
2019-05-22T11:55:54.709Z,20.90
2019-05-22T11:56:54.768Z,20.96
2019-05-22T11:57:54.706Z,20.93
2019-05-22T11:58:54.701Z,20.96
2019-05-22T11:59:54.692Z,20.95
2019-05-22T12:00:54.697Z,20.93
2019-05-22T12:01:54.680Z,20.98
2019-05-22T12:02:54.686Z,20.95
2019-05-22T12:03:54.770Z,20.91
2019-05-22T12:04:54.666Z,20.93
2019-05-22T12:05:54.685Z,20.96
2019-05-22T12:06:54.654Z,20.96
2019-05-22T12:07:54.652Z,20.95
2019-05-22T12:08:54.643Z,20.96
2019-05-22T12:09:54.634Z,21.04
2019-05-22T12:10:54.628Z,20.93
2019-05-22T12:11:54.625Z,20.95
2019-05-22T12:12:54.623Z,20.93
2019-05-22T12:13:54.614Z,20.98
2019-05-22T12:14:54.613Z,20.91
2019-05-22T12:15:54.602Z,20.84
2019-05-22T12:16:54.594Z,20.93
2019-05-22T12:17:54.588Z,20.90
2019-05-22T12:18:58.276Z,20.89
2019-05-22T12:19:54.590Z,20.87
2019-05-22T12:20:54.621Z,20.98
2019-05-22T12:21:54.589Z,20.90
2019-05-22T12:22:54.569Z,20.84
2019-05-22T12:23:54.552Z,20.91
2019-05-22T12:24:54.548Z,20.95
2019-05-22T12:25:54.546Z,20.96
2019-05-22T12:26:54.548Z,20.98
2019-05-22T12:27:54.533Z,20.96
2019-05-22T12:28:54.534Z,20.96
2019-05-22T12:29:54.521Z,20.96
2019-05-22T12:30:54.521Z,20.90
2019-05-22T12:31:54.515Z,20.87
2019-05-22T12:32:54.513Z,20.93
2019-05-22T12:33:54.495Z,20.89
2019-05-22T12:34:54.496Z,20.93
2019-05-22T12:35:54.509Z,20.90
2019-05-22T12:36:54.492Z,20.95
2019-05-22T12:37:54.503Z,20.81
2019-05-22T12:38:54.475Z,20.86
2019-05-22T12:39:54.463Z,20.83
2019-05-22T12:40:54.462Z,20.89
2019-05-22T12:41:54.465Z,20.86
2019-05-22T12:42:54.455Z,20.87
2019-05-22T12:43:54.443Z,20.86
2019-05-22T12:44:56.178Z,20.86
2019-05-22T12:45:56.178Z,21.01
2019-05-22T12:46:54.426Z,20.89
2019-05-22T12:47:54.426Z,20.93
2019-05-22T12:48:54.417Z,20.96
2019-05-22T12:49:54.415Z,20.93
2019-05-22T12:50:54.407Z,20.89
2019-05-22T12:51:54.407Z,20.86
2019-05-22T12:52:54.391Z,20.86